sensor_id;sensor_type;location;lat;lon;timestamp;pressure;altitude;pressure_sealevel;temperature;humidity
61900;BME280;47853;55.890;37.664;2022-09-16T00:00:49;97895.94;;;10.21;83.44
61900;BME280;47853;55.890;37.664;2022-09-16T00:03:16;97902.25;;;10.13;83.61
61900;BME280;47853;55.890;37.664;2022-09-16T00:05:43;97908.19;;;10.22;84.06
61900;BME280;47853;55.890;37.664;2022-09-16T00:08:09;97896.28;;;10.05;84.10
61900;BME280;47853;55.890;37.664;2022-09-16T00:10:34;97891.19;;;9.96;84.18
61900;BME280;47853;55.890;37.664;2022-09-16T00:13:00;97906.94;;;10.11;84.33
61900;BME280;47853;55.890;37.664;2022-09-16T00:15:25;97888.53;;;9.96;84.85
61900;BME280;47853;55.890;37.664;2022-09-16T00:17:51;97890.78;;;10.13;84.43
61900;BME280;47853;55.890;37.664;2022-09-16T00:20:16;97886.75;;;10.30;84.07
61900;BME280;47853;55.890;37.664;2022-09-16T00:22:41;97909.22;;;10.35;83.14
61900;BME280;47853;55.890;37.664;2022-09-16T00:25:07;97898.75;;;10.13;82.96
61900;BME280;47853;55.890;37.664;2022-09-16T00:27:32;97894.59;;;9.77;83.93
61900;BME280;47853;55.890;37.664;2022-09-16T00:29:58;97901.59;;;9.98;85.05
61900;BME280;47853;55.890;37.664;2022-09-16T00:32:23;97899.31;;;9.88;85.27
61900;BME280;47853;55.890;37.664;2022-09-16T00:34:49;97908.13;;;10.02;84.74
61900;BME280;47853;55.890;37.664;2022-09-16T00:37:14;97883.59;;;9.86;84.93
61900;BME280;47853;55.890;37.664;2022-09-16T00:39:39;97904.88;;;10.00;85.12
61900;BME280;47853;55.890;37.664;2022-09-16T00:42:05;97884.41;;;9.74;85.80
61900;BME280;47853;55.890;37.664;2022-09-16T00:47:17;97899.88;;;9.70;86.08
61900;BME280;47853;55.890;37.664;2022-09-16T00:49:44;97905.22;;;9.77;86.02
61900;BME280;47853;55.890;37.664;2022-09-16T00:52:11;97880.50;;;9.69;85.91
61900;BME280;47853;55.890;37.664;2022-09-16T00:54:38;97883.16;;;9.76;85.96
61900;BME280;47853;55.890;37.664;2022-09-16T00:57:06;97900.81;;;10.04;85.65
61900;BME280;47853;55.890;37.664;2022-09-16T00:59:40;97879.19;;;10.07;84.78
61900;BME280;47853;55.890;37.664;2022-09-16T01:02:12;97888.34;;;10.05;84.21
61900;BME280;47853;55.890;37.664;2022-09-16T01:04:50;97890.81;;;10.20;84.09
61900;BME280;47853;55.890;37.664;2022-09-16T01:07:24;97887.75;;;10.36;82.86
61900;BME280;47853;55.890;37.664;2022-09-16T01:09:51;97877.75;;;10.38;82.21
61900;BME280;47853;55.890;37.664;2022-09-16T01:12:16;97896.31;;;9.98;82.25
61900;BME280;47853;55.890;37.664;2022-09-16T01:14:41;97888.50;;;9.90;83.91
61900;BME280;47853;55.890;37.664;2022-09-16T01:17:49;97898.31;;;9.89;84.35
61900;BME280;47853;55.890;37.664;2022-09-16T01:23:49;97891.16;;;9.90;85.38
61900;BME280;47853;55.890;37.664;2022-09-16T01:26:23;97885.44;;;9.79;85.80
61900;BME280;47853;55.890;37.664;2022-09-16T01:43:01;97883.81;;;9.92;85.78
61900;BME280;47853;55.890;37.664;2022-09-16T01:45:36;97874.69;;;10.01;85.34
61900;BME280;47853;55.890;37.664;2022-09-16T01:48:11;97865.66;;;9.89;85.45
61900;BME280;47853;55.890;37.664;2022-09-16T01:50:45;97864.91;;;10.08;84.95
61900;BME280;47853;55.890;37.664;2022-09-16T01:53:17;97868.53;;;9.94;84.70
61900;BME280;47853;55.890;37.664;2022-09-16T01:58:29;97871.66;;;9.49;85.31
61900;BME280;47853;55.890;37.664;2022-09-16T02:01:09;97867.84;;;9.71;85.56
61900;BME280;47853;55.890;37.664;2022-09-16T02:03:39;97873.59;;;9.75;85.04
61900;BME280;47853;55.890;37.664;2022-09-16T02:06:07;97863.78;;;9.69;84.75
61900;BME280;47853;55.890;37.664;2022-09-16T02:08:49;97861.13;;;9.69;84.46
61900;BME280;47853;55.890;37.664;2022-09-16T02:11:17;97866.47;;;9.82;84.04
61900;BME280;47853;55.890;37.664;2022-09-16T02:14:02;97864.59;;;9.63;84.33
61900;BME280;47853;55.890;37.664;2022-09-16T02:16:52;97868.75;;;9.37;85.53
61900;BME280;47853;55.890;37.664;2022-09-16T02:19:25;97871.22;;;9.45;86.21
61900;BME280;47853;55.890;37.664;2022-09-16T02:21:52;97877.84;;;9.63;86.14
61900;BME280;47853;55.890;37.664;2022-09-16T02:24:21;97870.47;;;9.58;85.96
61900;BME280;47853;55.890;37.664;2022-09-16T02:26:51;97872.13;;;9.66;86.06
61900;BME280;47853;55.890;37.664;2022-09-16T02:29:21;97873.56;;;9.68;85.77
61900;BME280;47853;55.890;37.664;2022-09-16T02:31:50;97880.81;;;9.46;85.95
61900;BME280;47853;55.890;37.664;2022-09-16T02:34:24;97870.91;;;9.68;85.72
61900;BME280;47853;55.890;37.664;2022-09-16T02:36:53;97866.81;;;9.59;85.82
61900;BME280;47853;55.890;37.664;2022-09-16T02:39:26;97872.09;;;9.52;86.35
61900;BME280;47853;55.890;37.664;2022-09-16T02:41:52;97862.25;;;9.46;86.54
61900;BME280;47853;55.890;37.664;2022-09-16T02:44:17;97856.81;;;9.54;87.08
61900;BME280;47853;55.890;37.664;2022-09-16T02:46:46;97864.91;;;9.46;86.86
61900;BME280;47853;55.890;37.664;2022-09-16T02:49:25;97859.47;;;9.54;87.34
61900;BME280;47853;55.890;37.664;2022-09-16T02:57:33;97851.69;;;9.53;86.45
61900;BME280;47853;55.890;37.664;2022-09-16T02:59:58;97855.81;;;9.55;86.55
61900;BME280;47853;55.890;37.664;2022-09-16T03:02:24;97855.00;;;9.62;86.92
61900;BME280;47853;55.890;37.664;2022-09-16T03:04:49;97851.50;;;9.54;86.88
61900;BME280;47853;55.890;37.664;2022-09-16T03:07:15;97857.88;;;9.67;86.98
61900;BME280;47853;55.890;37.664;2022-09-16T03:09:44;97852.34;;;9.68;86.75
61900;BME280;47853;55.890;37.664;2022-09-16T03:12:32;97848.13;;;9.81;86.59
61900;BME280;47853;55.890;37.664;2022-09-16T03:15:09;97845.69;;;9.86;86.06
61900;BME280;47853;55.890;37.664;2022-09-16T03:17:51;97845.41;;;9.67;86.07
61900;BME280;47853;55.890;37.664;2022-09-16T03:23:19;97847.72;;;9.97;85.83
61900;BME280;47853;55.890;37.664;2022-09-16T03:28:23;97850.41;;;10.18;84.98
61900;BME280;47853;55.890;37.664;2022-09-16T03:33:41;97848.78;;;10.16;84.06
61900;BME280;47853;55.890;37.664;2022-09-16T03:36:12;97840.22;;;10.35;83.65
61900;BME280;47853;55.890;37.664;2022-09-16T03:38:39;97825.09;;;10.01;84.09
61900;BME280;47853;55.890;37.664;2022-09-16T03:41:07;97850.59;;;10.02;84.53
61900;BME280;47853;55.890;37.664;2022-09-16T03:43:33;97849.19;;;10.27;84.86
61900;BME280;47853;55.890;37.664;2022-09-16T03:46:00;97847.53;;;10.06;84.42
61900;BME280;47853;55.890;37.664;2022-09-16T03:48:26;97847.56;;;10.26;84.39
61900;BME280;47853;55.890;37.664;2022-09-16T03:50:52;97838.59;;;10.34;84.06
61900;BME280;47853;55.890;37.664;2022-09-16T03:53:17;97844.09;;;10.32;83.36
61900;BME280;47853;55.890;37.664;2022-09-16T03:55:42;97847.34;;;10.34;84.14
61900;BME280;47853;55.890;37.664;2022-09-16T03:58:08;97851.84;;;10.27;84.26
61900;BME280;47853;55.890;37.664;2022-09-16T04:00:33;97851.44;;;10.30;84.59
61900;BME280;47853;55.890;37.664;2022-09-16T04:02:59;97852.25;;;10.24;84.73
61900;BME280;47853;55.890;37.664;2022-09-16T04:05:28;97851.03;;;10.26;84.76
61900;BME280;47853;55.890;37.664;2022-09-16T04:07:53;97844.28;;;10.37;85.10
61900;BME280;47853;55.890;37.664;2022-09-16T04:10:19;97849.66;;;10.51;84.53
61900;BME280;47853;55.890;37.664;2022-09-16T04:12:44;97829.19;;;10.38;83.99
61900;BME280;47853;55.890;37.664;2022-09-16T04:15:10;97860.06;;;10.46;83.43
61900;BME280;47853;55.890;37.664;2022-09-16T04:17:35;97842.47;;;10.38;83.77
61900;BME280;47853;55.890;37.664;2022-09-16T04:20:01;97854.75;;;10.66;83.76
61900;BME280;47853;55.890;37.664;2022-09-16T04:22:30;97859.00;;;10.87;83.07
61900;BME280;47853;55.890;37.664;2022-09-16T04:24:56;97853.28;;;10.90;82.13
61900;BME280;47853;55.890;37.664;2022-09-16T04:27:22;97867.38;;;10.84;81.98
61900;BME280;47853;55.890;37.664;2022-09-16T04:29:47;97854.31;;;10.89;81.82
61900;BME280;47853;55.890;37.664;2022-09-16T04:32:13;97844.66;;;11.01;81.76
61900;BME280;47853;55.890;37.664;2022-09-16T04:34:38;97857.75;;;10.90;81.92
61900;BME280;47853;55.890;37.664;2022-09-16T04:37:04;97853.00;;;11.12;81.58
61900;BME280;47853;55.890;37.664;2022-09-16T04:39:29;97844.25;;;10.98;81.64
61900;BME280;47853;55.890;37.664;2022-09-16T04:41:54;97845.69;;;11.07;81.30
61900;BME280;47853;55.890;37.664;2022-09-16T04:44:20;97818.16;;;10.88;81.54
61900;BME280;47853;55.890;37.664;2022-09-16T04:46:45;97844.66;;;11.08;81.96
61900;BME280;47853;55.890;37.664;2022-09-16T04:49:10;97853.84;;;11.06;82.06
61900;BME280;47853;55.890;37.664;2022-09-16T04:51:36;97855.53;;;10.86;82.65
61900;BME280;47853;55.890;37.664;2022-09-16T04:59:29;97801.31;;;11.08;81.78
61900;BME280;47853;55.890;37.664;2022-09-16T05:02:05;97803.56;;;11.04;80.80
61900;BME280;47853;55.890;37.664;2022-09-16T05:04:31;97813.75;;;11.14;80.90
61900;BME280;47853;55.890;37.664;2022-09-16T05:06:58;97817.72;;;10.91;81.76
61900;BME280;47853;55.890;37.664;2022-09-16T05:09:24;97794.66;;;10.78;82.55
61900;BME280;47853;55.890;37.664;2022-09-16T05:11:52;97757.13;;;10.61;82.56
61900;BME280;47853;55.890;37.664;2022-09-16T05:14:22;97766.31;;;10.72;82.61
61900;BME280;47853;55.890;37.664;2022-09-16T05:20:01;97766.06;;;10.80;83.05
61900;BME280;47853;55.890;37.664;2022-09-16T05:23:04;97745.25;;;10.70;82.87
61900;BME280;47853;55.890;37.664;2022-09-16T05:25:29;97786.22;;;11.01;82.85
61900;BME280;47853;55.890;37.664;2022-09-16T05:27:58;97824.38;;;11.21;82.88
61900;BME280;47853;55.890;37.664;2022-09-16T05:31:09;97792.66;;;10.67;83.44
61900;BME280;47853;55.890;37.664;2022-09-16T05:33:34;97772.81;;;10.76;83.85
61900;BME280;47853;55.890;37.664;2022-09-16T05:36:38;97764.72;;;10.51;83.97
61900;BME280;47853;55.890;37.664;2022-09-16T05:39:18;97815.44;;;11.01;84.61
61900;BME280;47853;55.890;37.664;2022-09-16T05:41:54;97817.63;;;11.25;84.00
61900;BME280;47853;55.890;37.664;2022-09-16T05:44:19;97743.44;;;10.64;84.19
61900;BME280;47853;55.890;37.664;2022-09-16T05:46:45;97743.47;;;10.44;84.65
61900;BME280;47853;55.890;37.664;2022-09-16T05:52:48;97744.28;;;10.51;85.59
61900;BME280;47853;55.890;37.664;2022-09-16T05:55:21;97772.00;;;10.76;85.45
61900;BME280;47853;55.890;37.664;2022-09-16T05:57:58;97770.53;;;10.80;85.41
61900;BME280;47853;55.890;37.664;2022-09-16T06:00:26;97724.44;;;10.74;84.88
61900;BME280;47853;55.890;37.664;2022-09-16T06:03:01;97795.16;;;11.21;84.44
61900;BME280;47853;55.890;37.664;2022-09-16T06:05:32;97771.84;;;11.23;84.23
61900;BME280;47853;55.890;37.664;2022-09-16T06:07:57;97729.81;;;11.06;83.84
61900;BME280;47853;55.890;37.664;2022-09-16T06:10:25;97775.59;;;11.47;83.03
61900;BME280;47853;55.890;37.664;2022-09-16T06:13:10;97714.28;;;11.03;82.90
61900;BME280;47853;55.890;37.664;2022-09-16T06:15:38;97793.50;;;11.65;82.75
61900;BME280;47853;55.890;37.664;2022-09-16T06:18:05;97723.34;;;10.88;83.43
61900;BME280;47853;55.890;37.664;2022-09-16T06:20:31;97779.84;;;11.55;83.75
61900;BME280;47853;55.890;37.664;2022-09-16T06:22:56;97735.25;;;11.18;83.22
61900;BME280;47853;55.890;37.664;2022-09-16T06:25:24;97721.03;;;11.06;83.31
61900;BME280;47853;55.890;37.664;2022-09-16T06:27:50;97775.44;;;11.35;83.63
61900;BME280;47853;55.890;37.664;2022-09-16T06:30:15;97805.50;;;11.36;84.08
61900;BME280;47853;55.890;37.664;2022-09-16T06:33:01;97769.25;;;11.48;84.20
61900;BME280;47853;55.890;37.664;2022-09-16T06:35:40;97757.31;;;11.64;83.39
61900;BME280;47853;55.890;37.664;2022-09-16T06:41:47;97786.47;;;11.78;82.46
61900;BME280;47853;55.890;37.664;2022-09-16T06:48:04;97776.91;;;12.02;83.17
61900;BME280;47853;55.890;37.664;2022-09-16T06:51:06;97697.31;;;11.75;83.15
61900;BME280;47853;55.890;37.664;2022-09-16T06:53:41;97729.56;;;12.11;82.44
61900;BME280;47853;55.890;37.664;2022-09-16T06:59:46;97766.47;;;12.51;81.70
61900;BME280;47853;55.890;37.664;2022-09-16T07:02:14;97699.22;;;11.93;81.37
61900;BME280;47853;55.890;37.664;2022-09-16T07:05:09;97670.44;;;11.83;81.39
61900;BME280;47853;55.890;37.664;2022-09-16T07:10:22;97699.41;;;12.17;79.55
61900;BME280;47853;55.890;37.664;2022-09-16T07:12:53;97688.38;;;11.88;80.33
61900;BME280;47853;55.890;37.664;2022-09-16T07:15:21;97739.78;;;12.32;81.09
61900;BME280;47853;55.890;37.664;2022-09-16T07:17:52;97744.63;;;12.98;80.37
61900;BME280;47853;55.890;37.664;2022-09-16T07:20:21;97701.00;;;12.81;79.14
61900;BME280;47853;55.890;37.664;2022-09-16T07:22:49;97724.22;;;13.23;77.97
61900;BME280;47853;55.890;37.664;2022-09-16T07:25:20;97747.78;;;13.44;77.40
61900;BME280;47853;55.890;37.664;2022-09-16T07:27:45;97732.34;;;13.46;76.99
61900;BME280;47853;55.890;37.664;2022-09-16T07:30:16;97684.44;;;13.09;76.97
61900;BME280;47853;55.890;37.664;2022-09-16T07:33:02;97754.50;;;13.28;77.88
61900;BME280;47853;55.890;37.664;2022-09-16T07:35:32;97749.44;;;13.27;78.65
61900;BME280;47853;55.890;37.664;2022-09-16T07:43:55;97703.47;;;13.43;77.59
61900;BME280;47853;55.890;37.664;2022-09-16T07:46:25;97719.66;;;13.60;77.01
61900;BME280;47853;55.890;37.664;2022-09-16T07:48:54;97685.41;;;13.45;76.66
61900;BME280;47853;55.890;37.664;2022-09-16T07:51:52;97693.44;;;13.69;76.40
61900;BME280;47853;55.890;37.664;2022-09-16T07:54:35;97705.41;;;13.90;75.57
61900;BME280;47853;55.890;37.664;2022-09-16T07:57:10;97688.63;;;14.02;74.93
61900;BME280;47853;55.890;37.664;2022-09-16T08:00:20;97729.19;;;14.87;73.50
61900;BME280;47853;55.890;37.664;2022-09-16T08:03:11;97680.88;;;14.89;71.47
61900;BME280;47853;55.890;37.664;2022-09-16T08:05:44;97660.44;;;15.12;69.78
61900;BME280;47853;55.890;37.664;2022-09-16T08:08:12;97661.47;;;15.40;69.12
61900;BME280;47853;55.890;37.664;2022-09-16T08:10:38;97683.56;;;15.35;69.56
61900;BME280;47853;55.890;37.664;2022-09-16T08:13:04;97671.50;;;15.84;68.46
61900;BME280;47853;55.890;37.664;2022-09-16T08:15:38;97705.19;;;15.79;67.79
61900;BME280;47853;55.890;37.664;2022-09-16T08:18:06;97674.72;;;15.17;69.67
61900;BME280;47853;55.890;37.664;2022-09-16T08:20:35;97715.34;;;14.90;71.67
61900;BME280;47853;55.890;37.664;2022-09-16T08:23:03;97686.31;;;14.94;70.94
61900;BME280;47853;55.890;37.664;2022-09-16T08:25:35;97670.28;;;14.94;71.29
61900;BME280;47853;55.890;37.664;2022-09-16T08:28:13;97698.34;;;15.37;71.09
61900;BME280;47853;55.890;37.664;2022-09-16T08:30:38;97645.13;;;15.24;70.77
61900;BME280;47853;55.890;37.664;2022-09-16T08:33:04;97670.72;;;15.20;70.07
61900;BME280;47853;55.890;37.664;2022-09-16T08:35:29;97695.69;;;15.72;69.90
61900;BME280;47853;55.890;37.664;2022-09-16T08:37:54;97703.16;;;15.87;69.02
61900;BME280;47853;55.890;37.664;2022-09-16T08:40:22;97667.47;;;15.81;69.31
61900;BME280;47853;55.890;37.664;2022-09-16T08:45:57;97682.34;;;17.39;63.03
61900;BME280;47853;55.890;37.664;2022-09-16T08:50:51;97679.88;;;16.83;64.62
61900;BME280;47853;55.890;37.664;2022-09-16T08:55:47;97685.22;;;16.38;66.26
61900;BME280;47853;55.890;37.664;2022-09-16T09:00:41;97675.00;;;16.80;65.63
61900;BME280;47853;55.890;37.664;2022-09-16T09:05:46;97677.34;;;16.32;66.05
61900;BME280;47853;55.890;37.664;2022-09-16T09:16:55;97663.91;;;16.71;64.10
61900;BME280;47853;55.890;37.664;2022-09-16T09:20:02;97676.47;;;16.93;63.49
61900;BME280;47853;55.890;37.664;2022-09-16T09:25:20;97666.69;;;16.59;64.46
61900;BME280;47853;55.890;37.664;2022-09-16T09:30:30;97664.59;;;16.61;64.46
61900;BME280;47853;55.890;37.664;2022-09-16T09:38:17;97659.50;;;17.04;63.23
61900;BME280;47853;55.890;37.664;2022-09-16T09:40:57;97679.53;;;16.79;63.46
61900;BME280;47853;55.890;37.664;2022-09-16T09:46:26;97675.91;;;16.46;64.15
61900;BME280;47853;55.890;37.664;2022-09-16T09:49:01;97646.53;;;16.12;65.06
61900;BME280;47853;55.890;37.664;2022-09-16T09:51:35;97673.13;;;16.80;64.06
61900;BME280;47853;55.890;37.664;2022-09-16T09:56:56;97660.22;;;17.27;62.14
61900;BME280;47853;55.890;37.664;2022-09-16T10:02:19;97661.00;;;17.50;61.47
61900;BME280;47853;55.890;37.664;2022-09-16T10:04:45;97658.94;;;17.30;62.28
61900;BME280;47853;55.890;37.664;2022-09-16T10:07:13;97641.91;;;17.19;62.54
61900;BME280;47853;55.890;37.664;2022-09-16T10:10:15;97645.72;;;17.23;62.51
61900;BME280;47853;55.890;37.664;2022-09-16T10:12:42;97656.31;;;17.07;63.01
61900;BME280;47853;55.890;37.664;2022-09-16T10:15:29;97624.69;;;16.87;63.92
61900;BME280;47853;55.890;37.664;2022-09-16T10:17:57;97655.59;;;16.95;63.24
61900;BME280;47853;55.890;37.664;2022-09-16T10:23:00;97619.66;;;16.68;64.87
61900;BME280;47853;55.890;37.664;2022-09-16T10:25:26;97627.38;;;16.87;64.03
61900;BME280;47853;55.890;37.664;2022-09-16T10:28:02;97621.06;;;16.76;63.86
61900;BME280;47853;55.890;37.664;2022-09-16T10:30:30;97617.41;;;16.60;65.52
61900;BME280;47853;55.890;37.664;2022-09-16T10:33:01;97616.97;;;16.46;65.67
61900;BME280;47853;55.890;37.664;2022-09-16T10:35:32;97626.69;;;16.52;66.02
61900;BME280;47853;55.890;37.664;2022-09-16T10:40:30;97629.56;;;16.46;66.06
61900;BME280;47853;55.890;37.664;2022-09-16T10:43:05;97603.63;;;16.29;64.56
61900;BME280;47853;55.890;37.664;2022-09-16T10:45:44;97614.84;;;16.48;63.90
61900;BME280;47853;55.890;37.664;2022-09-16T10:48:12;97617.59;;;16.53;62.87
61900;BME280;47853;55.890;37.664;2022-09-16T10:50:54;97633.75;;;16.59;62.55
61900;BME280;47853;55.890;37.664;2022-09-16T10:53:31;97630.56;;;16.40;63.68
61900;BME280;47853;55.890;37.664;2022-09-16T10:56:03;97617.31;;;16.50;62.91
61900;BME280;47853;55.890;37.664;2022-09-16T10:58:30;97597.78;;;16.32;62.99
61900;BME280;47853;55.890;37.664;2022-09-16T11:06:42;97600.53;;;17.09;61.12
61900;BME280;47853;55.890;37.664;2022-09-16T11:09:17;97592.44;;;17.04;61.63
61900;BME280;47853;55.890;37.664;2022-09-16T11:14:54;97585.41;;;16.98;61.48
61900;BME280;47853;55.890;37.664;2022-09-16T11:22:59;97609.75;;;16.47;62.15
61900;BME280;47853;55.890;37.664;2022-09-16T11:34:16;97562.63;;;16.23;63.95
61900;BME280;47853;55.890;37.664;2022-09-16T11:40:14;97580.84;;;16.49;64.68
61900;BME280;47853;55.890;37.664;2022-09-16T11:54:20;97552.88;;;15.95;66.66
61900;BME280;47853;55.890;37.664;2022-09-16T11:59:50;97547.84;;;15.81;65.00
61900;BME280;47853;55.890;37.664;2022-09-16T12:02:34;97549.72;;;15.81;65.20
61900;BME280;47853;55.890;37.664;2022-09-16T12:05:18;97545.81;;;15.89;65.31
61900;BME280;47853;55.890;37.664;2022-09-16T12:08:16;97542.47;;;15.99;64.99
61900;BME280;47853;55.890;37.664;2022-09-16T12:10:49;97544.59;;;16.19;64.84
61900;BME280;47853;55.890;37.664;2022-09-16T12:16:00;97544.44;;;16.26;64.68
61900;BME280;47853;55.890;37.664;2022-09-16T12:18:39;97526.41;;;15.99;65.84
61900;BME280;47853;55.890;37.664;2022-09-16T12:21:15;97545.22;;;16.04;66.66
61900;BME280;47853;55.890;37.664;2022-09-16T12:23:48;97546.66;;;15.89;66.89
61900;BME280;47853;55.890;37.664;2022-09-16T12:26:19;97536.81;;;15.95;67.35
61900;BME280;47853;55.890;37.664;2022-09-16T12:29:07;97539.81;;;15.81;68.39
61900;BME280;47853;55.890;37.664;2022-09-16T12:34:23;97530.16;;;15.80;68.99
61900;BME280;47853;55.890;37.664;2022-09-16T12:40:05;97523.22;;;15.62;71.01
61900;BME280;47853;55.890;37.664;2022-09-16T12:43:01;97530.25;;;15.69;72.52
61900;BME280;47853;55.890;37.664;2022-09-16T12:54:31;97532.81;;;14.73;77.42
61900;BME280;47853;55.890;37.664;2022-09-16T13:02:35;97533.16;;;14.35;80.78
61900;BME280;47853;55.890;37.664;2022-09-16T13:05:12;97546.63;;;14.29;82.68
61900;BME280;47853;55.890;37.664;2022-09-16T13:07:40;97543.06;;;14.23;83.15
61900;BME280;47853;55.890;37.664;2022-09-16T13:10:18;97525.69;;;14.09;83.60
61900;BME280;47853;55.890;37.664;2022-09-16T13:12:52;97539.50;;;14.05;84.29
61900;BME280;47853;55.890;37.664;2022-09-16T13:15:37;97541.59;;;14.03;84.20
61900;BME280;47853;55.890;37.664;2022-09-16T13:18:09;97543.69;;;14.01;85.24
61900;BME280;47853;55.890;37.664;2022-09-16T13:20:57;97541.78;;;14.26;86.75
61900;BME280;47853;55.890;37.664;2022-09-16T13:23:26;97531.06;;;13.97;86.69
61900;BME280;47853;55.890;37.664;2022-09-16T13:31:28;97530.69;;;14.17;86.96
61900;BME280;47853;55.890;37.664;2022-09-16T13:38:51;97528.63;;;14.36;86.38
61900;BME280;47853;55.890;37.664;2022-09-16T13:41:36;97531.25;;;14.19;85.22
61900;BME280;47853;55.890;37.664;2022-09-16T13:44:28;97534.81;;;14.25;85.74
61900;BME280;47853;55.890;37.664;2022-09-16T13:46:53;97535.59;;;14.37;86.64
61900;BME280;47853;55.890;37.664;2022-09-16T13:49:22;97511.91;;;14.00;86.33
61900;BME280;47853;55.890;37.664;2022-09-16T13:51:50;97528.81;;;14.17;87.30
61900;BME280;47853;55.890;37.664;2022-09-16T13:54:29;97526.44;;;13.92;87.80
61900;BME280;47853;55.890;37.664;2022-09-16T14:00:17;97532.91;;;14.08;88.60
61900;BME280;47853;55.890;37.664;2022-09-16T14:03:16;97542.16;;;14.05;89.28
61900;BME280;47853;55.890;37.664;2022-09-16T14:06:09;97533.03;;;13.89;89.76
61900;BME280;47853;55.890;37.664;2022-09-16T14:08:41;97528.56;;;13.42;89.34
61900;BME280;47853;55.890;37.664;2022-09-16T14:11:39;97548.44;;;13.40;89.32
61900;BME280;47853;55.890;37.664;2022-09-16T14:14:11;97543.94;;;13.40;89.74
61900;BME280;47853;55.890;37.664;2022-09-16T14:16:41;97535.34;;;13.26;nan
61900;BME280;47853;55.890;37.664;2022-09-16T14:24:50;97477.91;;;12.64;92.30
61900;BME280;47853;55.890;37.664;2022-09-16T14:27:30;97516.06;;;12.88;92.65
61900;BME280;47853;55.890;37.664;2022-09-16T14:29:58;97524.16;;;12.82;93.19
61900;BME280;47853;55.890;37.664;2022-09-16T14:32:33;97529.13;;;12.78;92.79
61900;BME280;47853;55.890;37.664;2022-09-16T14:35:02;97529.00;;;12.73;92.88
61900;BME280;47853;55.890;37.664;2022-09-16T14:37:29;97520.66;;;12.69;93.12
61900;BME280;47853;55.890;37.664;2022-09-16T14:43:13;97537.31;;;12.65;93.40
61900;BME280;47853;55.890;37.664;2022-09-16T14:45:45;97543.03;;;12.50;93.33
61900;BME280;47853;55.890;37.664;2022-09-16T14:48:13;97531.91;;;12.41;93.41
61900;BME280;47853;55.890;37.664;2022-09-16T14:50:43;97544.31;;;12.47;93.90
61900;BME280;47853;55.890;37.664;2022-09-16T14:53:33;97555.94;;;12.34;94.07
61900;BME280;47853;55.890;37.664;2022-09-16T14:56:01;97526.59;;;12.22;94.24
61900;BME280;47853;55.890;37.664;2022-09-16T14:58:30;97528.72;;;12.32;94.71
61900;BME280;47853;55.890;37.664;2022-09-16T15:03:41;97537.63;;;12.26;94.62
61900;BME280;47853;55.890;37.664;2022-09-16T15:06:14;97526.97;;;12.07;94.32
61900;BME280;47853;55.890;37.664;2022-09-16T15:08:48;97530.94;;;11.98;94.47
61900;BME280;47853;55.890;37.664;2022-09-16T15:11:18;97507.31;;;12.08;94.54
61900;BME280;47853;55.890;37.664;2022-09-16T15:13:45;97518.69;;;11.97;94.10
61900;BME280;47853;55.890;37.664;2022-09-16T15:16:19;97509.16;;;11.70;93.87
61900;BME280;47853;55.890;37.664;2022-09-16T15:18:56;97510.03;;;11.83;94.24
61900;BME280;47853;55.890;37.664;2022-09-16T15:21:24;97506.78;;;11.99;94.15
61900;BME280;47853;55.890;37.664;2022-09-16T15:23:52;97505.34;;;12.03;94.07
61900;BME280;47853;55.890;37.664;2022-09-16T15:26:24;97495.03;;;12.26;93.81
61900;BME280;47853;55.890;37.664;2022-09-16T15:31:38;97499.00;;;12.35;93.50
61900;BME280;47853;55.890;37.664;2022-09-16T15:34:22;97503.03;;;12.26;93.84
61900;BME280;47853;55.890;37.664;2022-09-16T15:36:52;97504.97;;;12.18;94.41
61900;BME280;47853;55.890;37.664;2022-09-16T15:44:52;97501.97;;;12.27;95.78
61900;BME280;47853;55.890;37.664;2022-09-16T15:47:50;97487.44;;;12.11;96.22
61900;BME280;47853;55.890;37.664;2022-09-16T15:50:18;97481.41;;;12.34;96.31
61900;BME280;47853;55.890;37.664;2022-09-16T15:55:25;97493.50;;;12.18;97.05
61900;BME280;47853;55.890;37.664;2022-09-16T15:57:58;97485.19;;;12.26;97.66
61900;BME280;47853;55.890;37.664;2022-09-16T16:00:26;97489.47;;;12.27;97.40
61900;BME280;47853;55.890;37.664;2022-09-16T16:03:14;97479.88;;;12.26;97.97
61900;BME280;47853;55.890;37.664;2022-09-16T16:05:49;97490.97;;;12.23;97.54
61900;BME280;47853;55.890;37.664;2022-09-16T16:11:08;97466.59;;;12.08;98.22
61900;BME280;47853;55.890;37.664;2022-09-16T16:13:34;97469.84;;;12.10;98.59
61900;BME280;47853;55.890;37.664;2022-09-16T16:16:00;97480.56;;;12.03;99.03
61900;BME280;47853;55.890;37.664;2022-09-16T16:18:25;97449.47;;;11.85;99.19
61900;BME280;47853;55.890;37.664;2022-09-16T16:20:51;97476.13;;;11.97;99.34
61900;BME280;47853;55.890;37.664;2022-09-16T16:23:16;97494.28;;;12.00;99.69
61900;BME280;47853;55.890;37.664;2022-09-16T16:25:41;97455.38;;;11.87;99.72
61900;BME280;47853;55.890;37.664;2022-09-16T16:28:06;97472.97;;;12.07;99.93
61900;BME280;47853;55.890;37.664;2022-09-16T16:30:32;97460.19;;;12.15;99.96
61900;BME280;47853;55.890;37.664;2022-09-16T16:32:57;97451.91;;;12.05;99.76
61900;BME280;47853;55.890;37.664;2022-09-16T16:35:22;97446.94;;;12.09;99.98
61900;BME280;47853;55.890;37.664;2022-09-16T16:37:48;97450.41;;;12.09;100.00
61900;BME280;47853;55.890;37.664;2022-09-16T16:40:14;97452.34;;;12.02;100.00
61900;BME280;47853;55.890;37.664;2022-09-16T16:42:39;97457.72;;;12.14;100.00
61900;BME280;47853;55.890;37.664;2022-09-16T16:45:05;97450.13;;;12.17;100.00
61900;BME280;47853;55.890;37.664;2022-09-16T16:47:31;97436.69;;;12.24;100.00
61900;BME280;47853;55.890;37.664;2022-09-16T16:49:56;97446.88;;;12.27;100.00
61900;BME280;47853;55.890;37.664;2022-09-16T16:52:21;97443.59;;;12.13;100.00